createdAt,value
2024-04-24T00:01:44.890Z,1.80
2024-04-24T00:04:15.532Z,1.90
2024-04-24T00:06:46.082Z,2.00
2024-04-24T00:09:16.822Z,2.00
2024-04-24T00:11:47.497Z,2.10
2024-04-24T00:14:22.811Z,2.10
2024-04-24T00:16:53.371Z,2.10
2024-04-24T00:19:24.098Z,2.10
2024-04-24T00:21:54.534Z,2.20
2024-04-24T00:24:24.970Z,2.20
2024-04-24T00:26:56.793Z,2.30
2024-04-24T00:29:29.866Z,2.40
2024-04-24T00:32:06.336Z,2.40
2024-04-24T00:34:37.429Z,2.50
2024-04-24T00:37:08.027Z,2.60
2024-04-24T00:39:38.515Z,2.70
2024-04-24T00:42:08.997Z,2.80
2024-04-24T00:44:42.226Z,2.90
2024-04-24T00:47:14.160Z,3.00
2024-04-24T00:49:45.912Z,3.00
2024-04-24T00:52:14.016Z,3.00
2024-04-24T00:54:44.619Z,3.00
2024-04-24T00:57:15.409Z,3.00
2024-04-24T00:59:49.363Z,3.10
2024-04-24T01:02:20.626Z,3.20
2024-04-24T01:04:51.636Z,3.40
2024-04-24T01:07:22.382Z,3.30
2024-04-24T01:09:52.879Z,3.40
2024-04-24T01:12:23.380Z,3.40
2024-04-24T01:14:56.592Z,3.50
2024-04-24T01:17:28.203Z,3.50
2024-04-24T01:20:03.591Z,3.60
2024-04-24T01:23:04.933Z,3.60
2024-04-24T01:25:40.008Z,3.70
2024-04-24T01:28:13.355Z,3.70
2024-04-24T01:30:43.827Z,3.70
2024-04-24T01:33:14.938Z,3.80
2024-04-24T01:35:43.066Z,3.80
2024-04-24T01:38:13.689Z,3.90
2024-04-24T01:40:41.654Z,3.90
2024-04-24T01:43:15.191Z,4.00
2024-04-24T01:45:45.780Z,4.10
2024-04-24T01:48:16.328Z,4.20
2024-04-24T01:50:46.804Z,4.40
2024-04-24T01:53:17.392Z,4.50
2024-04-24T01:55:54.298Z,4.50
2024-04-24T01:58:27.522Z,4.60
2024-04-24T02:00:58.126Z,4.60
2024-04-24T02:03:28.568Z,4.70
2024-04-24T02:05:59.032Z,4.70
2024-04-24T02:08:29.519Z,4.70
2024-04-24T02:11:00.197Z,4.70
2024-04-24T02:13:33.441Z,4.70
2024-04-24T02:16:03.931Z,4.70
2024-04-24T02:18:34.684Z,4.70
2024-04-24T02:21:10.884Z,4.80
2024-04-24T02:23:41.400Z,4.80
2024-04-24T02:26:10.390Z,4.80
2024-04-24T02:28:43.590Z,4.90
2024-04-24T02:31:14.416Z,4.90
2024-04-24T02:33:44.889Z,5.00
2024-04-24T02:36:15.432Z,5.20
2024-04-24T02:38:46.068Z,5.10
2024-04-24T02:41:16.509Z,5.10
2024-04-24T02:43:50.259Z,5.00
2024-04-24T02:46:20.773Z,4.90
2024-04-24T02:48:51.312Z,4.90
2024-04-24T02:51:22.005Z,5.00
2024-04-24T02:53:52.490Z,4.90
2024-04-24T02:56:23.035Z,4.80
2024-04-24T02:58:56.230Z,4.70
2024-04-24T03:01:26.851Z,4.70
2024-04-24T03:03:57.392Z,4.70
2024-04-24T03:06:27.967Z,4.60
2024-04-24T03:08:58.578Z,4.70
2024-04-24T03:11:29.144Z,4.70
2024-04-24T03:14:02.402Z,4.70
2024-04-24T03:16:33.579Z,4.70
2024-04-24T03:19:04.484Z,4.60
2024-04-24T03:21:34.961Z,4.60
2024-04-24T03:24:05.518Z,4.60
2024-04-24T03:26:36.446Z,4.60
2024-04-24T03:29:09.641Z,4.60
2024-04-24T03:31:40.085Z,4.60
2024-04-24T03:34:10.730Z,4.50
2024-04-24T03:36:41.158Z,4.40
2024-04-24T03:39:11.677Z,4.30
2024-04-24T03:41:42.153Z,4.30
2024-04-24T03:44:15.419Z,4.20
2024-04-24T03:46:45.988Z,4.20
2024-04-24T03:49:16.475Z,4.10
2024-04-24T03:51:46.983Z,4.00
2024-04-24T03:54:17.646Z,3.90
2024-04-24T03:56:48.686Z,3.90
2024-04-24T03:59:21.952Z,3.90
2024-04-24T04:01:52.600Z,3.90
2024-04-24T04:04:23.151Z,3.90
2024-04-24T04:06:53.705Z,3.80
2024-04-24T04:09:24.182Z,3.70
2024-04-24T04:11:54.785Z,3.70
2024-04-24T04:14:28.106Z,3.70
2024-04-24T04:16:58.646Z,3.70
2024-04-24T04:19:29.251Z,3.70
2024-04-24T04:21:59.749Z,3.70
2024-04-24T04:24:30.181Z,3.70
2024-04-24T04:27:01.251Z,3.70
2024-04-24T04:29:34.382Z,3.80
2024-04-24T04:32:04.916Z,3.80
2024-04-24T04:34:35.641Z,3.80
2024-04-24T04:37:08.063Z,3.80
2024-04-24T04:39:38.556Z,3.80
2024-04-24T04:42:09.153Z,3.90
2024-04-24T04:44:42.250Z,3.90
2024-04-24T04:47:12.724Z,3.90
2024-04-24T04:49:43.129Z,3.90
2024-04-24T04:52:11.050Z,4.00
2024-04-24T04:54:41.582Z,4.10
2024-04-24T04:57:12.092Z,4.10
2024-04-24T04:59:45.314Z,4.20
2024-04-24T05:02:15.950Z,4.20
2024-04-24T05:04:46.450Z,4.30
2024-04-24T05:07:17.008Z,4.40
2024-04-24T05:09:47.666Z,4.40
2024-04-24T05:12:18.324Z,4.50
2024-04-24T05:14:52.908Z,4.60
2024-04-24T05:17:23.661Z,4.60
2024-04-24T05:19:54.375Z,4.70
2024-04-24T05:22:24.997Z,4.70
2024-04-24T05:24:55.500Z,4.80
2024-04-24T05:27:42.229Z,4.90
2024-04-24T05:30:15.820Z,5.00
2024-04-24T05:32:46.964Z,5.20
2024-04-24T05:35:17.672Z,5.30
2024-04-24T05:37:48.418Z,5.30
2024-04-24T05:40:18.935Z,5.40
2024-04-24T05:42:49.672Z,5.30
2024-04-24T05:45:22.855Z,5.30
2024-04-24T05:47:53.464Z,5.30
2024-04-24T05:50:24.186Z,5.30
2024-04-24T05:52:54.831Z,5.20
2024-04-24T05:55:26.979Z,5.10
2024-04-24T05:57:57.605Z,5.20
2024-04-24T06:00:30.858Z,5.30
2024-04-24T06:03:02.779Z,5.30
2024-04-24T06:05:33.425Z,5.50
2024-04-24T06:08:04.045Z,5.60
2024-04-24T06:10:34.461Z,5.70
2024-04-24T06:13:04.971Z,6.10
2024-04-24T06:15:38.175Z,6.60
2024-04-24T06:18:09.358Z,7.40
2024-04-24T06:20:40.000Z,7.80
2024-04-24T06:23:11.746Z,7.90
2024-04-24T06:25:45.728Z,7.90
2024-04-24T06:28:16.439Z,7.80
2024-04-24T06:30:49.649Z,8.00
2024-04-24T06:33:20.213Z,8.10
2024-04-24T06:35:50.878Z,8.20
2024-04-24T06:38:22.963Z,8.30
2024-04-24T06:40:54.052Z,8.30
2024-04-24T06:43:24.497Z,8.00
2024-04-24T06:45:57.716Z,7.70
2024-04-24T06:48:28.275Z,7.60
2024-04-24T06:51:02.197Z,7.70
2024-04-24T06:53:34.956Z,7.50
2024-04-24T06:56:07.515Z,7.40
2024-04-24T06:58:38.672Z,7.40
2024-04-24T07:01:11.745Z,7.50
2024-04-24T07:03:42.524Z,7.60
2024-04-24T07:06:13.101Z,7.70
2024-04-24T07:08:43.556Z,7.80
2024-04-24T07:11:14.271Z,7.70
2024-04-24T07:13:45.041Z,7.50
2024-04-24T07:16:18.367Z,7.60
2024-04-24T07:18:49.373Z,8.10
2024-04-24T07:21:19.864Z,8.60
2024-04-24T07:23:50.269Z,8.80
2024-04-24T07:26:21.857Z,9.00
2024-04-24T07:28:52.609Z,9.20
2024-04-24T07:31:25.764Z,9.20
2024-04-24T07:33:56.345Z,9.00
2024-04-24T07:36:26.885Z,8.80
2024-04-24T07:38:57.416Z,8.70
2024-04-24T07:41:28.012Z,8.70
2024-04-24T07:43:58.511Z,8.70
2024-04-24T07:46:32.333Z,8.60
2024-04-24T07:49:02.744Z,8.50
2024-04-24T07:51:33.259Z,8.10
2024-04-24T07:54:01.168Z,7.70
2024-04-24T07:56:31.783Z,6.80
2024-04-24T07:59:02.592Z,5.90
2024-04-24T08:01:35.668Z,5.50
2024-04-24T08:04:06.196Z,5.20
2024-04-24T08:06:36.712Z,5.50
2024-04-24T08:09:07.306Z,5.90
2024-04-24T08:11:37.829Z,6.40
2024-04-24T08:14:08.667Z,6.80
2024-04-24T08:16:41.834Z,6.90
2024-04-24T08:19:12.414Z,7.10
2024-04-24T08:21:42.921Z,7.70
2024-04-24T08:24:13.265Z,8.70
2024-04-24T08:26:43.670Z,10.20
2024-04-24T08:29:14.261Z,11.60
2024-04-24T08:31:47.494Z,13.00
2024-04-24T08:34:17.868Z,13.40
2024-04-24T08:36:48.339Z,13.90
2024-04-24T08:39:18.717Z,13.90
2024-04-24T08:41:49.766Z,13.50
2024-04-24T08:44:20.696Z,12.40
2024-04-24T08:46:56.595Z,12.10
2024-04-24T08:49:29.219Z,11.80
2024-04-24T08:52:01.489Z,11.40
2024-04-24T08:54:34.593Z,11.00
2024-04-24T08:57:04.233Z,10.60
2024-04-24T08:59:37.173Z,10.50
2024-04-24T09:02:14.432Z,10.50
2024-04-24T09:04:47.514Z,10.40
2024-04-24T09:07:23.017Z,10.00
2024-04-24T09:09:54.636Z,9.80
2024-04-24T09:12:27.670Z,9.70
2024-04-24T09:14:58.182Z,9.90
2024-04-24T09:17:31.429Z,10.10
2024-04-24T09:20:02.240Z,10.50
2024-04-24T09:22:32.819Z,10.90
2024-04-24T09:25:03.283Z,10.90
2024-04-24T09:27:34.557Z,10.70
2024-04-24T09:30:05.125Z,10.60
2024-04-24T09:32:38.381Z,10.50
2024-04-24T09:35:10.071Z,10.70
2024-04-24T09:37:40.762Z,10.90
2024-04-24T09:40:12.141Z,11.10
2024-04-24T09:42:42.716Z,12.00
2024-04-24T09:45:13.576Z,12.70
2024-04-24T09:47:49.167Z,13.60
2024-04-24T09:50:19.832Z,13.80
2024-04-24T09:52:50.995Z,14.00
2024-04-24T09:55:23.200Z,14.40
2024-04-24T09:57:59.284Z,14.10
2024-04-24T10:00:30.624Z,13.50
2024-04-24T10:03:12.599Z,13.30
2024-04-24T10:05:51.675Z,14.10
2024-04-24T10:08:35.229Z,13.90
2024-04-24T10:11:08.324Z,14.20
2024-04-24T10:13:44.923Z,15.30
2024-04-24T10:16:16.615Z,15.70
2024-04-24T10:18:50.812Z,15.70
2024-04-24T10:21:22.835Z,15.60
2024-04-24T10:23:56.167Z,14.40
2024-04-24T10:26:30.515Z,15.00
2024-04-24T10:29:05.037Z,16.40
2024-04-24T10:31:35.540Z,15.70
2024-04-24T10:34:09.331Z,16.00
2024-04-24T10:36:39.930Z,16.50
2024-04-24T10:39:10.749Z,16.70
2024-04-24T10:41:41.255Z,16.70
2024-04-24T10:44:11.824Z,16.10
2024-04-24T10:46:44.006Z,15.40
2024-04-24T10:49:20.084Z,15.40
2024-04-24T10:51:51.350Z,16.20
2024-04-24T10:54:21.886Z,16.30
2024-04-24T10:56:51.569Z,14.80
2024-04-24T10:59:34.297Z,12.60
2024-04-24T11:02:14.681Z,11.20
2024-04-24T11:04:48.727Z,11.30
2024-04-24T11:07:28.369Z,11.50
2024-04-24T11:10:07.740Z,12.10
2024-04-24T11:12:41.766Z,12.50
2024-04-24T11:15:23.722Z,13.30
2024-04-24T11:17:55.592Z,13.90
2024-04-24T11:20:32.364Z,14.70
2024-04-24T11:23:11.840Z,15.50
2024-04-24T11:25:59.255Z,16.20
2024-04-24T11:28:31.054Z,16.30
2024-04-24T11:30:59.244Z,16.60
2024-04-24T11:33:30.600Z,16.60
2024-04-24T11:36:04.450Z,15.80
2024-04-24T11:38:37.099Z,15.50
2024-04-24T11:41:08.578Z,15.50
2024-04-24T11:43:39.143Z,14.30
2024-04-24T11:46:09.650Z,13.50
2024-04-24T11:48:47.034Z,14.50
2024-04-24T11:51:26.651Z,15.20
2024-04-24T11:53:58.791Z,16.20
2024-04-24T11:56:29.648Z,15.70
2024-04-24T11:59:05.356Z,15.60
2024-04-24T12:01:36.605Z,16.30
2024-04-24T12:04:08.953Z,17.00
2024-04-24T12:06:47.729Z,16.50
2024-04-24T12:09:18.708Z,15.20
2024-04-24T12:11:49.964Z,13.70
2024-04-24T12:14:21.680Z,14.00
2024-04-24T12:16:53.528Z,15.10
2024-04-24T12:19:24.309Z,17.20
2024-04-24T12:21:58.073Z,16.70
2024-04-24T12:24:29.679Z,15.20
2024-04-24T12:27:00.364Z,14.00
2024-04-24T12:29:31.088Z,11.70
2024-04-24T12:32:02.735Z,9.60
2024-04-24T12:34:33.794Z,8.50
2024-04-24T12:37:07.200Z,8.40
2024-04-24T12:39:38.049Z,9.80
2024-04-24T12:42:09.463Z,11.10
2024-04-24T12:44:40.267Z,12.30
2024-04-24T12:47:13.895Z,13.50
2024-04-24T12:49:44.662Z,14.50
2024-04-24T12:52:17.959Z,14.70
2024-04-24T12:54:48.659Z,14.90
2024-04-24T12:57:19.540Z,15.20
2024-04-24T12:59:50.165Z,15.50
2024-04-24T13:02:20.906Z,16.10
2024-04-24T13:04:51.901Z,16.10
2024-04-24T13:07:25.092Z,15.40
2024-04-24T13:09:55.856Z,14.50
2024-04-24T13:12:26.723Z,13.60
2024-04-24T13:14:57.217Z,13.10
2024-04-24T13:17:28.007Z,14.30
2024-04-24T13:19:58.841Z,14.70
2024-04-24T13:22:29.501Z,14.60
2024-04-24T13:25:00.283Z,14.40
2024-04-24T13:27:30.850Z,14.70
2024-04-24T13:30:03.107Z,15.50
2024-04-24T13:32:33.825Z,16.30
2024-04-24T13:35:04.641Z,16.80
2024-04-24T13:37:38.004Z,16.80
2024-04-24T13:40:10.013Z,16.80
2024-04-24T13:42:40.814Z,17.00
2024-04-24T13:45:11.693Z,16.90
2024-04-24T13:47:42.317Z,17.10
2024-04-24T13:50:13.421Z,17.10
2024-04-24T13:52:46.416Z,16.70
2024-04-24T13:55:14.607Z,16.40
2024-04-24T13:57:45.137Z,16.20
2024-04-24T14:00:16.824Z,16.40
2024-04-24T14:02:48.707Z,16.50
2024-04-24T14:05:19.389Z,16.20
2024-04-24T14:07:52.611Z,15.90
2024-04-24T14:10:23.186Z,14.80
2024-04-24T14:12:53.739Z,13.50
2024-04-24T14:15:24.392Z,12.80
2024-04-24T14:17:55.086Z,13.30
2024-04-24T14:20:25.830Z,13.20
2024-04-24T14:22:59.442Z,12.70
2024-04-24T14:25:31.657Z,12.50
2024-04-24T14:28:03.565Z,11.70
2024-04-24T14:30:34.254Z,11.10
2024-04-24T14:33:05.029Z,10.80
2024-04-24T14:35:36.293Z,11.00
2024-04-24T14:38:10.598Z,11.80
2024-04-24T14:40:41.366Z,13.00
2024-04-24T14:43:12.038Z,13.70
2024-04-24T14:45:42.723Z,14.00
2024-04-24T14:48:13.575Z,14.50
2024-04-24T14:50:45.932Z,14.40
2024-04-24T14:53:19.432Z,14.20
2024-04-24T14:55:50.156Z,14.20
2024-04-24T14:58:20.661Z,14.80
2024-04-24T15:00:51.103Z,15.40
2024-04-24T15:03:21.912Z,15.80
2024-04-24T15:05:52.911Z,15.50
2024-04-24T15:08:29.261Z,15.50
2024-04-24T15:10:59.910Z,15.20
2024-04-24T15:13:30.385Z,15.10
2024-04-24T15:16:00.978Z,15.00
2024-04-24T15:18:31.671Z,15.10
2024-04-24T15:21:02.353Z,15.30
2024-04-24T15:23:35.525Z,15.20
2024-04-24T15:26:06.131Z,14.90
2024-04-24T15:28:36.761Z,14.20
2024-04-24T15:31:08.846Z,13.40
2024-04-24T15:33:43.070Z,12.80
2024-04-24T15:36:14.663Z,12.70
2024-04-24T15:38:47.846Z,12.60
2024-04-24T15:41:18.540Z,12.20
2024-04-24T15:43:49.102Z,12.20
2024-04-24T15:46:19.703Z,12.30
2024-04-24T15:48:50.377Z,12.50
2024-04-24T15:51:20.971Z,12.70
2024-04-24T15:53:54.232Z,13.00
2024-04-24T15:56:25.495Z,12.50
2024-04-24T15:58:56.027Z,11.90
2024-04-24T16:01:28.430Z,11.40
2024-04-24T16:03:59.028Z,10.90
2024-04-24T16:06:30.291Z,10.40
2024-04-24T16:09:03.572Z,10.30
2024-04-24T16:11:34.516Z,10.20
2024-04-24T16:14:05.056Z,10.20
2024-04-24T16:16:35.767Z,10.80
2024-04-24T16:19:06.545Z,11.20
2024-04-24T16:21:39.456Z,11.30
2024-04-24T16:27:02.528Z,11.20
2024-04-24T16:29:33.174Z,11.50
2024-04-24T16:32:03.732Z,11.70
2024-04-24T16:34:34.402Z,11.30
2024-04-24T16:37:05.178Z,11.00
2024-04-24T16:39:33.072Z,10.90
2024-04-24T16:42:06.334Z,10.70
2024-04-24T16:44:37.105Z,10.60
2024-04-24T16:47:07.803Z,10.70
2024-04-24T16:49:40.403Z,11.10
2024-04-24T16:52:13.753Z,11.40
2024-04-24T16:54:44.993Z,11.60
2024-04-24T16:57:18.394Z,11.70
2024-04-24T16:59:49.599Z,11.60
2024-04-24T17:02:20.155Z,11.30
2024-04-24T17:04:51.045Z,10.80
2024-04-24T17:07:24.310Z,10.50
2024-04-24T17:09:56.296Z,10.50
2024-04-24T17:12:29.558Z,11.00
2024-04-24T17:15:00.067Z,10.90
2024-04-24T17:17:31.105Z,10.60
2024-04-24T17:20:02.119Z,10.40
2024-04-24T17:22:32.806Z,10.20
2024-04-24T17:25:03.430Z,10.50
2024-04-24T17:27:36.686Z,11.00
2024-04-24T17:30:11.682Z,10.70
2024-04-24T17:32:42.927Z,10.30
2024-04-24T17:35:13.799Z,9.80
2024-04-24T17:37:44.492Z,9.60
2024-04-24T17:40:16.143Z,9.40
2024-04-24T17:42:49.534Z,9.40
2024-04-24T17:45:20.546Z,9.60
2024-04-24T17:47:51.219Z,10.10
2024-04-24T17:50:24.837Z,10.40
2024-04-24T17:52:55.805Z,10.10
2024-04-24T17:55:27.106Z,9.60
2024-04-24T17:58:00.449Z,9.20
2024-04-24T18:00:36.002Z,8.90
2024-04-24T18:03:06.984Z,8.60
2024-04-24T18:05:39.472Z,8.30
2024-04-24T18:08:11.653Z,8.00
2024-04-24T18:10:45.620Z,7.70
2024-04-24T18:13:19.024Z,7.50
2024-04-24T18:15:51.778Z,7.40
2024-04-24T18:18:22.865Z,7.20
2024-04-24T18:20:53.655Z,7.10
2024-04-24T18:23:33.973Z,6.90
2024-04-24T18:26:04.806Z,6.80
2024-04-24T18:28:38.751Z,6.70
2024-04-24T18:31:10.431Z,6.70
2024-04-24T18:33:44.194Z,6.60
2024-04-24T18:36:20.896Z,6.50
2024-04-24T18:38:51.980Z,6.50
2024-04-24T18:41:23.199Z,6.40
2024-04-24T18:44:00.606Z,6.40
2024-04-24T18:46:31.533Z,6.20
2024-04-24T18:49:02.707Z,6.10
2024-04-24T18:51:39.121Z,5.90
2024-04-24T18:54:16.051Z,5.70
2024-04-24T18:56:46.840Z,5.60
2024-04-24T18:59:20.273Z,5.60
2024-04-24T19:01:54.352Z,5.60
2024-04-24T19:04:28.128Z,5.60
2024-04-24T19:06:59.107Z,5.50
2024-04-24T19:09:29.738Z,5.60
2024-04-24T19:12:01.851Z,5.60
2024-04-24T19:14:35.476Z,5.60
2024-04-24T19:17:06.315Z,5.50
2024-04-24T19:19:36.967Z,5.40
2024-04-24T19:22:07.715Z,5.20
2024-04-24T19:24:41.758Z,5.00
2024-04-24T19:27:11.322Z,4.80
2024-04-24T19:29:44.810Z,4.70
2024-04-24T19:32:25.542Z,4.60
2024-04-24T19:34:58.347Z,4.50
2024-04-24T19:37:31.085Z,4.30
2024-04-24T19:40:02.830Z,4.20
2024-04-24T19:42:33.946Z,4.10
2024-04-24T19:45:07.974Z,4.00
2024-04-24T19:47:39.008Z,4.00
2024-04-24T19:50:10.257Z,4.00
2024-04-24T19:52:41.057Z,4.10
2024-04-24T19:55:12.632Z,4.20
2024-04-24T19:57:43.322Z,4.30
2024-04-24T20:00:18.190Z,4.20
2024-04-24T20:02:49.284Z,4.20
2024-04-24T20:05:17.642Z,4.10
2024-04-24T20:07:48.530Z,4.30
2024-04-24T20:10:19.499Z,4.60
2024-04-24T20:12:52.828Z,4.80
2024-04-24T20:15:25.942Z,5.00
2024-04-24T20:17:57.797Z,5.20
2024-04-24T20:20:28.602Z,5.20
2024-04-24T20:22:59.627Z,5.20
2024-04-24T20:25:30.355Z,5.20
2024-04-24T20:28:01.161Z,5.30
2024-04-24T20:30:35.658Z,5.30
2024-04-24T20:33:10.579Z,5.30
2024-04-24T20:35:41.828Z,5.30
2024-04-24T20:38:13.028Z,5.20
2024-04-24T20:40:43.822Z,5.00
2024-04-24T20:43:14.598Z,4.90
2024-04-24T20:45:48.101Z,4.80
2024-04-24T20:48:19.160Z,4.60
2024-04-24T20:50:50.078Z,4.40
2024-04-24T20:53:22.794Z,4.30
2024-04-24T20:55:53.529Z,4.20
2024-04-24T20:58:24.597Z,4.00
2024-04-24T21:01:00.699Z,3.90
2024-04-24T21:03:33.958Z,3.80
2024-04-24T21:06:09.509Z,3.70
2024-04-24T21:08:41.441Z,3.60
2024-04-24T21:11:13.159Z,3.60
2024-04-24T21:13:44.081Z,3.50
2024-04-24T21:16:17.573Z,3.70
2024-04-24T21:18:51.515Z,3.80
2024-04-24T21:21:22.428Z,3.90
2024-04-24T21:23:55.556Z,4.00
2024-04-24T21:26:27.274Z,3.90
2024-04-24T21:28:58.163Z,4.10
2024-04-24T21:31:31.918Z,4.10
2024-04-24T21:34:00.483Z,4.20
2024-04-24T21:36:31.770Z,4.20
2024-04-24T21:39:03.641Z,4.10
2024-04-24T21:41:37.895Z,4.20
2024-04-24T21:44:12.008Z,4.10
2024-04-24T21:46:47.179Z,4.10
2024-04-24T21:49:17.911Z,4.20
2024-04-24T21:51:55.038Z,4.30
2024-04-24T21:54:26.268Z,4.30
2024-04-24T21:57:01.849Z,4.40
2024-04-24T21:59:38.724Z,4.40
2024-04-24T22:02:18.445Z,4.40
2024-04-24T22:05:01.448Z,4.40
2024-04-24T22:07:38.403Z,4.40
2024-04-24T22:10:12.614Z,4.50
2024-04-24T22:12:46.615Z,4.50
2024-04-24T22:15:17.834Z,4.50
2024-04-24T22:17:53.617Z,4.50
2024-04-24T22:20:24.688Z,4.50
2024-04-24T22:22:56.528Z,4.50
2024-04-24T22:25:30.394Z,4.50
2024-04-24T22:28:06.977Z,4.50
2024-04-24T22:30:40.824Z,4.50
2024-04-24T22:33:29.576Z,4.60
2024-04-24T22:36:00.734Z,4.60
2024-04-24T22:38:32.513Z,4.70
2024-04-24T22:41:03.380Z,4.60
2024-04-24T22:43:42.658Z,4.60
2024-04-24T22:46:16.738Z,4.60
2024-04-24T22:48:50.081Z,4.70
2024-04-24T22:51:33.192Z,4.70
2024-04-24T22:54:06.767Z,4.70
2024-04-24T22:56:40.174Z,4.70
2024-04-24T22:59:15.849Z,4.80
2024-04-24T23:01:58.850Z,4.80
2024-04-24T23:04:49.166Z,4.70
2024-04-24T23:07:36.978Z,4.70
2024-04-24T23:10:29.682Z,4.70
2024-04-24T23:16:42.868Z,4.70
2024-04-24T23:25:15.087Z,4.70
2024-04-24T23:28:27.606Z,4.70
2024-04-24T23:31:25.811Z,4.70
2024-04-24T23:34:08.190Z,4.60
2024-04-24T23:37:23.968Z,4.50
2024-04-24T23:40:08.127Z,4.50
2024-04-24T23:42:57.156Z,4.60
2024-04-24T23:45:28.143Z,4.70
2024-04-24T23:48:14.433Z,4.70
2024-04-24T23:51:15.700Z,4.70
2024-04-24T23:57:46.447Z,4.60
